createdAt,value
2023-03-27T00:01:14.908Z,0.10
2023-03-27T00:03:43.865Z,0.47
2023-03-27T00:06:16.442Z,0.10
2023-03-27T00:08:46.469Z,0.57
2023-03-27T00:11:14.836Z,0.00
2023-03-27T00:13:49.799Z,0.67
2023-03-27T00:16:19.916Z,0.20
2023-03-27T00:18:47.889Z,0.20
2023-03-27T00:21:16.883Z,0.83
2023-03-27T00:23:45.169Z,0.10
2023-03-27T00:26:13.321Z,0.10
2023-03-27T00:28:41.226Z,0.57
2023-03-27T00:31:11.836Z,0.20
2023-03-27T00:33:40.169Z,0.30
2023-03-27T00:36:08.718Z,0.30
2023-03-27T00:38:39.484Z,1.07
2023-03-27T00:41:08.563Z,0.40
2023-03-27T00:43:37.855Z,0.47
2023-03-27T00:46:14.602Z,0.30
2023-03-27T00:48:44.476Z,0.37
2023-03-27T00:51:12.279Z,0.60
2023-03-27T00:53:42.745Z,0.53
2023-03-27T00:56:10.991Z,0.40
2023-03-27T00:58:43.566Z,0.40
2023-03-27T01:01:14.608Z,0.50
2023-03-27T01:03:44.233Z,0.30
2023-03-27T01:06:14.505Z,0.60
2023-03-27T01:08:45.028Z,0.50
2023-03-27T01:11:20.918Z,0.80
2023-03-27T01:14:01.679Z,0.40
2023-03-27T01:16:39.415Z,0.47
2023-03-27T01:19:36.829Z,0.20
2023-03-27T01:22:53.529Z,1.23
2023-03-27T01:25:51.184Z,0.80
2023-03-27T01:28:32.032Z,0.43
2023-03-27T01:31:16.620Z,0.60
2023-03-27T01:34:16.258Z,0.47
2023-03-27T01:37:17.565Z,0.50
2023-03-27T01:39:54.892Z,0.30
2023-03-27T01:42:27.421Z,0.40
2023-03-27T01:45:02.625Z,0.53
2023-03-27T01:47:43.817Z,0.60
2023-03-27T01:50:19.858Z,0.60
2023-03-27T01:52:54.804Z,1.20
2023-03-27T01:55:27.607Z,0.67
2023-03-27T01:58:03.255Z,1.07
2023-03-27T02:00:52.108Z,0.77
2023-03-27T02:03:23.762Z,0.87
2023-03-27T02:05:56.969Z,0.87
2023-03-27T02:08:31.197Z,1.70
2023-03-27T02:11:10.729Z,1.30
2023-03-27T02:13:43.196Z,0.97
2023-03-27T02:16:18.352Z,1.03
2023-03-27T02:18:52.693Z,0.83
2023-03-27T02:21:20.377Z,1.03
2023-03-27T02:23:48.302Z,1.10
2023-03-27T02:26:17.660Z,0.70
2023-03-27T02:28:56.799Z,0.80
2023-03-27T02:31:50.752Z,2.87
2023-03-27T02:34:42.714Z,0.93
2023-03-27T02:37:22.869Z,1.03
2023-03-27T02:40:32.859Z,1.93
2023-03-27T02:43:46.761Z,0.83
2023-03-27T02:46:25.266Z,1.10
2023-03-27T02:48:56.953Z,1.87
2023-03-27T02:51:29.306Z,1.60
2023-03-27T02:54:00.987Z,1.50
2023-03-27T02:56:34.072Z,1.43
2023-03-27T02:59:08.776Z,2.50
2023-03-27T03:01:41.894Z,1.53
2023-03-27T03:04:21.209Z,0.90
2023-03-27T03:07:06.435Z,0.90
2023-03-27T03:09:40.490Z,0.90
2023-03-27T03:12:10.150Z,0.90
2023-03-27T03:14:45.030Z,0.70
2023-03-27T03:17:13.532Z,0.97
2023-03-27T03:19:41.394Z,0.60
2023-03-27T03:22:09.930Z,1.40
2023-03-27T03:24:42.153Z,1.23
2023-03-27T03:27:12.758Z,1.97
2023-03-27T03:29:58.391Z,1.00
2023-03-27T03:32:30.293Z,1.17
2023-03-27T03:34:58.638Z,1.20
2023-03-27T03:37:28.650Z,0.77
2023-03-27T03:39:58.322Z,0.70
2023-03-27T03:42:25.971Z,1.10
2023-03-27T03:44:54.113Z,0.73
2023-03-27T03:47:24.757Z,0.47
2023-03-27T03:49:52.936Z,0.27
2023-03-27T03:52:21.041Z,0.40
2023-03-27T03:54:48.809Z,0.40
2023-03-27T03:57:17.104Z,0.20
2023-03-27T03:59:52.138Z,0.20
2023-03-27T04:02:44.454Z,0.20
2023-03-27T04:05:15.196Z,0.40
2023-03-27T04:07:43.198Z,0.20
2023-03-27T04:10:23.350Z,0.30
2023-03-27T04:12:52.197Z,0.10
2023-03-27T04:15:49.652Z,0.17
2023-03-27T04:18:30.260Z,0.20
2023-03-27T04:20:59.276Z,0.20
2023-03-27T04:23:30.290Z,0.20
2023-03-27T04:26:00.236Z,0.20
2023-03-27T04:28:37.193Z,0.10
2023-03-27T04:31:24.428Z,0.20
2023-03-27T04:34:13.367Z,0.10
2023-03-27T04:37:00.777Z,0.50
2023-03-27T04:39:29.770Z,0.20
2023-03-27T04:41:58.315Z,0.10
2023-03-27T04:44:31.387Z,0.20
2023-03-27T04:47:02.789Z,0.00
2023-03-27T04:49:38.676Z,0.13
2023-03-27T04:52:17.518Z,0.30
2023-03-27T04:54:46.633Z,0.00
2023-03-27T04:57:15.776Z,0.30
2023-03-27T04:59:43.501Z,0.20
2023-03-27T05:02:44.720Z,0.83
2023-03-27T05:05:36.601Z,0.00
2023-03-27T05:08:06.507Z,0.03
2023-03-27T05:10:34.130Z,0.20
2023-03-27T05:13:02.197Z,0.07
2023-03-27T05:15:32.346Z,0.10
2023-03-27T05:18:01.200Z,0.10
2023-03-27T05:20:30.558Z,0.10
2023-03-27T05:23:01.574Z,0.00
2023-03-27T05:25:31.291Z,0.03
2023-03-27T05:28:00.910Z,0.30
2023-03-27T05:30:34.623Z,0.10
2023-03-27T05:33:14.926Z,0.23
2023-03-27T05:35:43.216Z,0.10
2023-03-27T05:38:14.312Z,0.10
2023-03-27T05:41:02.659Z,0.10
2023-03-27T05:43:32.192Z,0.10
2023-03-27T05:46:00.784Z,1.80
2023-03-27T05:48:28.699Z,0.10
2023-03-27T05:51:00.770Z,0.10
2023-03-27T05:53:29.775Z,0.10
2023-03-27T05:56:18.155Z,0.10
2023-03-27T05:58:54.099Z,0.10
2023-03-27T06:01:23.832Z,0.10
2023-03-27T06:03:56.005Z,0.00
2023-03-27T06:06:44.289Z,0.27
2023-03-27T06:09:13.979Z,0.00
2023-03-27T06:11:47.907Z,0.00
2023-03-27T06:14:15.513Z,0.00
2023-03-27T06:17:01.397Z,0.67
2023-03-27T06:19:58.358Z,0.10
2023-03-27T06:22:26.593Z,0.00
2023-03-27T06:24:55.752Z,0.00
2023-03-27T06:27:24.046Z,0.00
2023-03-27T06:29:51.726Z,0.00
2023-03-27T06:32:20.448Z,0.10
2023-03-27T06:34:51.966Z,0.10
2023-03-27T06:37:40.866Z,0.10
2023-03-27T06:40:20.081Z,0.57
2023-03-27T06:42:54.275Z,0.10
2023-03-27T06:45:33.226Z,0.20
2023-03-27T06:48:21.387Z,0.10
2023-03-27T06:50:53.980Z,1.77
2023-03-27T06:55:55.385Z,0.60
2023-03-27T06:58:24.856Z,0.73
2023-03-27T07:00:52.730Z,0.57
2023-03-27T07:03:22.828Z,0.57
2023-03-27T07:06:09.810Z,2.23
2023-03-27T07:08:47.729Z,1.07
2023-03-27T07:11:18.439Z,1.10
2023-03-27T07:13:54.863Z,1.77
2023-03-27T07:16:26.418Z,2.20
2023-03-27T07:18:54.334Z,2.03
2023-03-27T07:21:22.287Z,2.17
2023-03-27T07:23:50.614Z,2.27
2023-03-27T07:26:30.120Z,2.10
2023-03-27T07:29:18.151Z,3.87
2023-03-27T07:34:30.493Z,2.97
2023-03-27T07:37:18.419Z,4.00
2023-03-27T07:40:08.964Z,5.63
2023-03-27T07:42:39.089Z,4.50
2023-03-27T07:45:10.907Z,4.87
2023-03-27T07:47:38.721Z,3.73
2023-03-27T07:50:11.247Z,5.03
2023-03-27T07:52:40.819Z,3.80
2023-03-27T07:55:09.826Z,3.43
2023-03-27T07:57:59.699Z,3.93
2023-03-27T08:00:30.145Z,3.97
2023-03-27T08:03:09.416Z,3.80
2023-03-27T08:05:39.917Z,4.50
2023-03-27T08:08:12.420Z,4.43
2023-03-27T08:10:56.961Z,4.27
2023-03-27T08:13:28.035Z,3.47
2023-03-27T08:16:08.636Z,4.03
2023-03-27T08:18:38.009Z,5.23
2023-03-27T08:21:09.596Z,6.53
2023-03-27T08:23:39.549Z,5.27
2023-03-27T08:26:39.649Z,4.17
2023-03-27T08:29:12.063Z,6.80
2023-03-27T08:31:40.004Z,3.77
2023-03-27T08:34:08.777Z,5.07
2023-03-27T08:36:47.685Z,6.87
2023-03-27T08:39:16.732Z,4.43
2023-03-27T08:41:59.074Z,5.30
2023-03-27T08:44:36.211Z,5.63
2023-03-27T08:47:16.771Z,5.00
2023-03-27T08:50:18.801Z,3.53
2023-03-27T08:52:51.097Z,5.33
2023-03-27T08:55:39.074Z,9.00
2023-03-27T08:58:20.699Z,4.27
2023-03-27T09:01:01.543Z,4.83
2023-03-27T09:03:35.214Z,5.47
2023-03-27T09:06:10.766Z,5.00
2023-03-27T09:08:53.046Z,4.10
2023-03-27T09:11:33.777Z,3.27
2023-03-27T09:14:11.584Z,2.80
2023-03-27T09:16:50.140Z,3.47
2023-03-27T09:19:42.718Z,4.20
2023-03-27T09:22:22.323Z,3.30
2023-03-27T09:25:16.936Z,3.80
2023-03-27T09:28:03.437Z,4.00
2023-03-27T09:30:42.291Z,3.20
2023-03-27T09:33:24.113Z,2.93
2023-03-27T09:35:52.712Z,2.83
2023-03-27T09:38:27.822Z,2.60
2023-03-27T09:41:00.227Z,4.57
2023-03-27T09:43:37.477Z,4.23
2023-03-27T09:46:07.342Z,2.83
2023-03-27T09:48:41.556Z,2.60
2023-03-27T09:51:38.797Z,3.57
2023-03-27T09:54:12.726Z,3.23
2023-03-27T09:56:42.442Z,3.37
2023-03-27T09:59:19.497Z,2.87
2023-03-27T10:01:48.910Z,4.77
2023-03-27T10:04:21.852Z,2.40
2023-03-27T10:07:02.606Z,2.47
2023-03-27T10:09:44.453Z,2.80
2023-03-27T10:12:20.295Z,2.57
2023-03-27T10:14:52.939Z,3.40
2023-03-27T10:17:28.180Z,3.17
2023-03-27T10:20:15.787Z,2.27
2023-03-27T10:22:54.464Z,2.50
2023-03-27T10:25:30.198Z,2.20
2023-03-27T10:28:18.359Z,2.60
2023-03-27T10:31:08.483Z,3.17
2023-03-27T10:33:53.412Z,2.07
2023-03-27T10:36:48.420Z,2.00
2023-03-27T10:39:20.837Z,2.33
2023-03-27T10:42:17.059Z,2.10
2023-03-27T10:44:54.407Z,2.13
2023-03-27T10:47:27.452Z,1.57
2023-03-27T10:50:04.829Z,1.87
2023-03-27T10:52:51.364Z,1.67
2023-03-27T10:55:44.411Z,1.70
2023-03-27T10:58:24.589Z,1.33
2023-03-27T11:00:59.568Z,2.50
2023-03-27T11:03:34.650Z,3.37
2023-03-27T11:06:12.448Z,2.63
2023-03-27T11:08:53.015Z,2.10
2023-03-27T11:11:29.257Z,2.20
2023-03-27T11:14:03.225Z,1.70
2023-03-27T11:16:36.370Z,1.90
2023-03-27T11:19:23.418Z,2.13
2023-03-27T11:22:15.418Z,1.80
2023-03-27T11:24:54.735Z,1.73
2023-03-27T11:27:30.405Z,1.00
2023-03-27T11:30:14.270Z,1.40
2023-03-27T11:33:03.064Z,1.57
2023-03-27T11:35:37.747Z,2.50
2023-03-27T11:38:32.561Z,1.90
2023-03-27T11:41:04.243Z,1.10
2023-03-27T11:43:32.905Z,1.63
2023-03-27T11:46:16.781Z,1.00
2023-03-27T11:49:10.483Z,2.30
2023-03-27T11:51:57.378Z,1.90
2023-03-27T11:54:41.681Z,0.97
2023-03-27T11:57:23.467Z,1.13
2023-03-27T12:00:16.209Z,2.97
2023-03-27T12:03:06.801Z,1.03
2023-03-27T12:05:48.268Z,0.70
2023-03-27T12:08:27.259Z,0.57
2023-03-27T12:11:00.774Z,0.47
2023-03-27T12:14:01.737Z,0.53
2023-03-27T12:16:53.299Z,1.13
2023-03-27T12:19:47.545Z,1.13
2023-03-27T12:22:38.052Z,1.43
2023-03-27T12:25:50.150Z,0.37
2023-03-27T12:28:58.603Z,0.90
2023-03-27T12:31:57.940Z,1.80
2023-03-27T12:34:49.926Z,0.30
2023-03-27T12:37:20.325Z,0.63
2023-03-27T12:39:51.997Z,0.37
2023-03-27T12:42:44.005Z,0.70
2023-03-27T12:45:18.004Z,0.80
2023-03-27T12:48:20.208Z,0.63
2023-03-27T12:50:58.226Z,0.70
2023-03-27T12:53:48.125Z,0.30
2023-03-27T12:56:35.910Z,0.70
2023-03-27T12:59:15.826Z,1.47
2023-03-27T13:01:59.719Z,0.60
2023-03-27T13:05:06.722Z,1.03
2023-03-27T13:07:49.002Z,0.70
2023-03-27T13:10:39.366Z,0.80
2023-03-27T13:13:24.566Z,1.33
2023-03-27T13:16:25.856Z,0.23
2023-03-27T13:19:27.862Z,1.63
2023-03-27T13:22:16.172Z,0.73
2023-03-27T13:25:01.186Z,0.30
2023-03-27T13:27:46.090Z,0.83
2023-03-27T13:30:46.921Z,0.70
2023-03-27T13:33:45.032Z,0.50
2023-03-27T13:36:19.718Z,0.43
2023-03-27T13:39:22.710Z,0.20
2023-03-27T13:42:06.323Z,0.40
2023-03-27T13:44:56.099Z,0.67
2023-03-27T13:47:52.893Z,0.40
2023-03-27T13:50:47.351Z,0.40
2023-03-27T13:53:32.961Z,0.40
2023-03-27T13:56:27.292Z,0.40
2023-03-27T13:59:44.597Z,0.30
2023-03-27T14:02:56.247Z,0.30
2023-03-27T14:05:39.692Z,0.20
2023-03-27T14:08:32.285Z,0.67
2023-03-27T14:11:43.888Z,0.90
2023-03-27T14:14:46.253Z,0.70
2023-03-27T14:17:45.898Z,0.47
2023-03-27T14:20:23.327Z,0.23
2023-03-27T14:22:58.864Z,1.80
2023-03-27T14:25:38.428Z,0.73
2023-03-27T14:28:33.402Z,0.83
2023-03-27T14:31:08.542Z,0.17
2023-03-27T14:34:00.935Z,0.60
2023-03-27T14:36:41.887Z,0.20
2023-03-27T14:39:19.163Z,0.30
2023-03-27T14:41:55.776Z,0.70
2023-03-27T14:44:25.060Z,0.93
2023-03-27T14:46:58.050Z,0.30
2023-03-27T14:49:32.537Z,0.60
2023-03-27T14:52:07.829Z,0.40
2023-03-27T14:54:57.811Z,0.37
2023-03-27T14:57:31.939Z,0.73
2023-03-27T15:00:06.877Z,0.50
2023-03-27T15:02:42.021Z,0.47
2023-03-27T15:05:15.455Z,0.20
2023-03-27T15:07:48.850Z,1.17
2023-03-27T15:10:39.660Z,1.13
2023-03-27T15:13:11.270Z,0.33
2023-03-27T15:15:50.510Z,0.60
2023-03-27T15:18:25.304Z,0.37
2023-03-27T15:20:55.007Z,1.63
2023-03-27T15:23:26.361Z,2.30
2023-03-27T15:25:58.679Z,0.33
2023-03-27T15:28:32.766Z,1.33
2023-03-27T15:31:03.977Z,0.33
2023-03-27T15:33:35.126Z,1.17
2023-03-27T15:36:07.297Z,0.60
2023-03-27T15:38:37.261Z,0.50
2023-03-27T15:41:41.032Z,0.50
2023-03-27T15:44:16.736Z,0.20
2023-03-27T15:46:55.953Z,0.20
2023-03-27T15:49:27.791Z,0.50
2023-03-27T15:51:56.217Z,0.60
2023-03-27T15:54:26.763Z,1.47
2023-03-27T15:57:10.576Z,0.67
2023-03-27T15:59:52.560Z,0.47
2023-03-27T16:02:22.773Z,0.67
2023-03-27T16:04:53.490Z,0.60
2023-03-27T16:07:25.295Z,0.53
2023-03-27T16:09:56.031Z,0.40
2023-03-27T16:12:30.340Z,0.63
2023-03-27T16:15:01.506Z,1.80
2023-03-27T16:17:34.266Z,1.17
2023-03-27T16:20:08.020Z,0.70
2023-03-27T16:22:38.097Z,0.40
2023-03-27T16:25:09.818Z,0.90
2023-03-27T16:27:39.842Z,0.77
2023-03-27T16:30:20.898Z,0.40
2023-03-27T16:32:48.754Z,0.87
2023-03-27T16:35:16.946Z,0.50
2023-03-27T16:37:44.762Z,0.67
2023-03-27T16:40:13.125Z,0.67
2023-03-27T16:42:41.104Z,0.90
2023-03-27T16:45:11.096Z,0.60
2023-03-27T16:47:38.939Z,0.60
2023-03-27T16:50:11.563Z,0.70
2023-03-27T16:52:39.547Z,0.57
2023-03-27T16:55:08.304Z,0.53
2023-03-27T16:57:36.113Z,0.80
2023-03-27T17:00:05.363Z,1.07
2023-03-27T17:02:36.352Z,0.70
2023-03-27T17:05:04.223Z,0.80
2023-03-27T17:07:32.430Z,0.40
2023-03-27T17:10:00.749Z,0.60
2023-03-27T17:12:28.832Z,0.73
2023-03-27T17:14:58.064Z,2.50
2023-03-27T17:17:27.544Z,0.50
2023-03-27T17:19:56.978Z,0.30
2023-03-27T17:22:26.337Z,0.53
2023-03-27T17:24:57.228Z,1.03
2023-03-27T17:27:26.384Z,1.03
2023-03-27T17:29:55.542Z,0.37
2023-03-27T17:32:24.122Z,0.60
2023-03-27T17:34:52.126Z,0.57
2023-03-27T17:37:22.248Z,0.90
2023-03-27T17:39:50.578Z,1.73
2023-03-27T17:42:18.506Z,0.73
2023-03-27T17:44:46.257Z,1.20
2023-03-27T17:47:14.100Z,0.93
2023-03-27T17:49:43.506Z,1.07
2023-03-27T17:52:12.097Z,1.17
2023-03-27T17:54:42.015Z,1.40
2023-03-27T17:57:09.648Z,0.50
2023-03-27T17:59:38.581Z,0.87
2023-03-27T18:02:07.082Z,0.60
2023-03-27T18:04:35.408Z,0.60
2023-03-27T18:07:03.008Z,0.87
2023-03-27T18:09:33.802Z,1.80
2023-03-27T18:12:02.766Z,0.80
2023-03-27T18:14:30.807Z,1.03
2023-03-27T18:16:58.610Z,0.90
2023-03-27T18:19:26.473Z,0.77
2023-03-27T18:21:54.095Z,3.40
2023-03-27T18:24:21.766Z,0.63
2023-03-27T18:26:49.371Z,0.87
2023-03-27T18:29:21.270Z,0.60
2023-03-27T18:31:49.592Z,0.60
2023-03-27T18:34:17.334Z,1.63
2023-03-27T18:36:50.603Z,0.67
2023-03-27T18:39:18.707Z,1.70
2023-03-27T18:41:46.355Z,0.90
2023-03-27T18:44:14.463Z,1.20
2023-03-27T18:46:43.489Z,0.87
2023-03-27T18:49:23.478Z,1.27
2023-03-27T18:51:52.128Z,0.53
2023-03-27T18:54:19.796Z,0.60
2023-03-27T18:56:48.601Z,0.90
2023-03-27T18:59:16.650Z,0.67
2023-03-27T19:01:45.993Z,0.87
2023-03-27T19:04:16.478Z,0.93
2023-03-27T19:06:46.163Z,0.80
2023-03-27T19:09:14.275Z,1.43
2023-03-27T19:11:43.845Z,0.93
2023-03-27T19:14:17.794Z,0.80
2023-03-27T19:17:07.176Z,2.00
2023-03-27T19:19:54.787Z,1.83
2023-03-27T19:22:35.521Z,1.30
2023-03-27T19:25:16.248Z,1.50
2023-03-27T19:27:44.193Z,0.87
2023-03-27T19:30:14.778Z,2.20
2023-03-27T19:32:43.886Z,1.40
2023-03-27T19:35:11.582Z,0.83
2023-03-27T19:37:39.206Z,1.63
2023-03-27T19:40:10.087Z,1.00
2023-03-27T19:42:37.721Z,1.17
2023-03-27T19:45:06.639Z,2.37
2023-03-27T19:47:34.326Z,1.83
2023-03-27T19:50:04.030Z,2.13
2023-03-27T19:52:39.948Z,1.67
2023-03-27T19:55:08.537Z,2.23
2023-03-27T19:57:36.307Z,2.33
2023-03-27T20:00:09.338Z,2.53
2023-03-27T20:02:41.813Z,1.63
2023-03-27T20:05:11.429Z,1.17
2023-03-27T20:07:39.064Z,1.53
2023-03-27T20:10:10.203Z,1.77
2023-03-27T20:12:37.857Z,1.33
2023-03-27T20:15:12.116Z,1.57
2023-03-27T20:17:43.311Z,1.10
2023-03-27T20:20:12.935Z,2.10
2023-03-27T20:22:54.093Z,3.20
2023-03-27T20:25:25.338Z,1.80
2023-03-27T20:27:53.006Z,1.83
2023-03-27T20:30:20.880Z,2.27
2023-03-27T20:32:50.778Z,1.37
2023-03-27T20:35:24.409Z,1.47
2023-03-27T20:37:57.406Z,1.60
2023-03-27T20:40:26.370Z,1.40
2023-03-27T20:43:03.594Z,2.00
2023-03-27T20:45:31.760Z,1.30
2023-03-27T20:48:03.654Z,1.60
2023-03-27T20:50:35.777Z,1.27
2023-03-27T20:53:04.563Z,1.00
2023-03-27T20:55:37.260Z,1.30
2023-03-27T20:58:07.426Z,1.00
2023-03-27T21:00:35.148Z,0.80
2023-03-27T21:03:03.025Z,0.70
2023-03-27T21:05:32.858Z,0.67
2023-03-27T21:08:00.512Z,1.07
2023-03-27T21:10:28.165Z,1.10
2023-03-27T21:12:57.432Z,0.80
2023-03-27T21:15:25.639Z,0.87
2023-03-27T21:17:53.570Z,1.10
2023-03-27T21:20:21.489Z,1.43
2023-03-27T21:22:52.831Z,1.37
2023-03-27T21:25:20.953Z,1.03
2023-03-27T21:27:53.892Z,1.70
2023-03-27T21:30:22.082Z,1.10
2023-03-27T21:32:50.860Z,1.30
2023-03-27T21:35:18.708Z,1.23
2023-03-27T21:37:46.403Z,1.00
2023-03-27T21:40:16.100Z,0.87
2023-03-27T21:42:43.714Z,0.90
2023-03-27T21:45:11.505Z,1.83
2023-03-27T21:47:47.077Z,1.37
2023-03-27T21:50:15.926Z,1.20
2023-03-27T21:52:43.909Z,1.63
2023-03-27T21:55:11.774Z,1.27
2023-03-27T21:57:41.004Z,1.43
2023-03-27T22:00:09.783Z,1.57
2023-03-27T22:02:43.458Z,2.97
2023-03-27T22:05:11.137Z,1.53
2023-03-27T22:07:38.896Z,1.10
2023-03-27T22:10:07.609Z,1.10
2023-03-27T22:12:36.783Z,1.13
2023-03-27T22:15:07.473Z,1.27
2023-03-27T22:17:36.730Z,1.50
2023-03-27T22:20:05.260Z,0.70
2023-03-27T22:22:34.983Z,0.53
2023-03-27T22:25:03.118Z,1.70
2023-03-27T22:27:31.561Z,0.50
2023-03-27T22:29:59.194Z,0.90
2023-03-27T22:32:28.443Z,1.13
2023-03-27T22:34:56.104Z,0.60
2023-03-27T22:37:25.157Z,2.03
2023-03-27T22:39:53.216Z,0.73
2023-03-27T22:42:21.175Z,1.47
2023-03-27T22:44:49.026Z,0.87
2023-03-27T22:47:16.632Z,0.90
2023-03-27T22:49:46.096Z,1.40
2023-03-27T22:52:13.721Z,1.40
2023-03-27T22:54:41.590Z,0.80
2023-03-27T22:57:09.733Z,1.10
2023-03-27T22:59:37.709Z,1.50
2023-03-27T23:02:05.338Z,1.20
2023-03-27T23:04:33.130Z,1.60
2023-03-27T23:07:02.809Z,1.60
2023-03-27T23:09:30.884Z,1.97
2023-03-27T23:11:58.663Z,2.47
2023-03-27T23:14:26.259Z,1.87
2023-03-27T23:16:53.957Z,2.43
2023-03-27T23:19:22.252Z,2.13
2023-03-27T23:21:49.826Z,1.60
2023-03-27T23:24:19.001Z,2.43
2023-03-27T23:26:46.573Z,3.60
2023-03-27T23:29:14.382Z,2.27
2023-03-27T23:31:42.002Z,1.70
2023-03-27T23:34:09.883Z,1.70
2023-03-27T23:36:37.481Z,2.27
2023-03-27T23:39:05.439Z,2.23
2023-03-27T23:41:34.369Z,2.80
2023-03-27T23:44:02.100Z,2.37
2023-03-27T23:46:29.709Z,2.90
2023-03-27T23:48:57.564Z,1.80
2023-03-27T23:51:25.448Z,1.57
2023-03-27T23:53:53.455Z,1.90
2023-03-27T23:56:21.160Z,3.43
2023-03-27T23:58:50.284Z,2.00
